Time;durP1;ratioP1;P1;durP2;ratioP2;P2;SDS_P1;SDS_P2;PMS_P1;PMS_P2;Temp;Humidity;BMP_temperature;BMP_pressure;BME280_temperature;BME280_humidity;BME280_pressure;Samples;Min_cycle;Max_cycle;Signal;HPM_P1;HPM_P2
2023/07/10 00:00:26;;;;;;;;;;;20.60;92.30;;;;;;7602461;19;19927;-83
2023/07/10 00:02:58;;;;;;;;;;;20.60;92.50;;;;;;7595163;19;19951;-84
2023/07/10 00:05:30;;;;;;;;;;;20.50;92.70;;;;;;7606469;19;19952;-87
2023/07/10 00:08:02;;;;;;;;;;;20.50;93.00;;;;;;7608766;19;19925;-82
2023/07/10 00:10:34;;;;;;;;;;;20.40;93.10;;;;;;7617287;19;19935;-84
2023/07/10 00:13:09;;;;;;;;;;;20.50;93.30;;;;;;7599063;19;19927;-89
2023/07/10 00:15:41;;;;;;;;;;;20.60;93.30;;;;;;7618037;19;19934;-87
2023/07/10 00:18:15;;;;;;;;;;;20.60;92.70;;;;;;7634277;19;19931;-85
2023/07/10 00:20:47;;;;;;;;;;;20.70;92.50;;;;;;7646464;19;19923;-87
2023/07/10 00:23:19;;;;;;;;;;;20.80;92.10;;;;;;7640369;19;19962;-86
2023/07/10 00:25:51;;;;;;;;;;;20.80;91.70;;;;;;7641599;19;20855;-85
2023/07/10 00:28:24;;;;;;;;;;;20.80;92.70;;;;;;7635751;19;19922;-84
2023/07/10 00:30:56;;;;;;;;;;;20.70;92.90;;;;;;7632965;19;19922;-83
2023/07/10 00:33:28;;;;;;;;;;;20.70;92.80;;;;;;7634772;19;19919;-86
2023/07/10 00:36:00;;;;;;;;;;;20.80;91.70;;;;;;7618833;19;19934;-82
2023/07/10 00:38:34;;;;;;;;;;;21.00;91.90;;;;;;7605954;19;20494;-82
2023/07/10 00:41:09;;;;;;;;;;;21.00;91.60;;;;;;7594121;19;21009;-86
2023/07/10 00:43:46;;;;;;;;;;;21.00;91.60;;;;;;7601777;19;19939;-87
2023/07/10 00:46:22;;;;;;;;;;;21.00;91.30;;;;;;7573468;19;20751;-81
2023/07/10 00:48:57;;;;;;;;;;;20.90;92.00;;;;;;7603395;19;20764;-83
2023/07/10 00:51:51;;;;;;;;;;;20.80;92.80;;;;;;7595438;19;20280;-85
2023/07/10 00:54:23;;;;;;;;;;;;;;;;;;7586160;19;21026;-84
2023/07/10 00:56:56;;;;;;;;;;;;;;;;;;7638377;19;19918;-85
2023/07/10 00:59:28;;;;;;;;;;;;;;;;;;7607865;19;19919;-81
2023/07/10 01:02:01;;;;;;;;;;;;;;;;;;7591259;19;19926;-83
2023/07/10 01:04:34;;;;;;;;;;;20.60;93.10;;;;;;7579108;19;19914;-86
2023/07/10 01:07:07;;;;;;;;;;;20.10;94.90;;;;;;7567784;19;19918;-84
2023/07/10 01:09:41;;;;;;;;;;;20.00;95.00;;;;;;7608032;19;20330;-84
2023/07/10 01:12:15;;;;;;;;;;;20.10;94.20;;;;;;7596764;19;19978;-85
2023/07/10 01:14:47;;;;;;;;;;;20.30;93.30;;;;;;7584079;19;19921;-85
2023/07/10 01:17:19;;;;;;;;;;;20.40;92.90;;;;;;7599277;19;20001;-84
2023/07/10 01:19:54;;;;;;;;;;;20.50;92.80;;;;;;7603981;19;19948;-83
2023/07/10 01:22:27;;;;;;;;;;;20.60;92.60;;;;;;7598353;19;19970;-84
2023/07/10 01:24:59;;;;;;;;;;;20.60;92.40;;;;;;7595838;19;20368;-84
2023/07/10 01:27:31;;;;;;;;;;;20.60;92.20;;;;;;7594557;19;19923;-80
2023/07/10 01:30:05;;;;;;;;;;;20.50;92.40;;;;;;7603990;19;19918;-86
2023/07/10 01:32:37;;;;;;;;;;;20.50;92.80;;;;;;7609533;19;19918;-83
2023/07/10 01:35:13;;;;;;;;;;;20.60;92.60;;;;;;7600157;19;19960;-81
2023/07/10 01:37:45;;;;;;;;;;;20.50;92.50;;;;;;7597142;19;19910;-83
2023/07/10 01:40:20;;;;;;;;;;;20.50;92.60;;;;;;7589576;19;19925;-86
2023/07/10 01:42:55;;;;;;;;;;;20.50;92.90;;;;;;7604088;19;20793;-82
2023/07/10 01:45:28;;;;;;;;;;;20.40;93.00;;;;;;7592536;19;20524;-80
2023/07/10 01:48:00;;;;;;;;;;;20.30;93.50;;;;;;7607492;19;19919;-80
2023/07/10 01:50:32;;;;;;;;;;;20.20;93.40;;;;;;7595094;19;19971;-84
2023/07/10 01:53:07;;;;;;;;;;;20.30;93.10;;;;;;7592634;19;19929;-85
2023/07/10 01:55:43;;;;;;;;;;;20.30;92.90;;;;;;7582911;19;21685;-82
2023/07/10 01:58:15;;;;;;;;;;;20.40;92.80;;;;;;7600698;19;21003;-86
2023/07/10 02:00:47;;;;;;;;;;;20.30;92.70;;;;;;7591375;19;20995;-83
2023/07/10 02:03:19;;;;;;;;;;;20.20;92.70;;;;;;7598782;19;19927;-82
2023/07/10 02:05:52;;;;;;;;;;;20.10;93.30;;;;;;7597462;19;19922;-83
2023/07/10 02:08:25;;;;;;;;;;;20.10;93.00;;;;;;7580226;19;19922;-82
2023/07/10 02:10:57;;;;;;;;;;;20.10;92.90;;;;;;7598516;19;19923;-82
2023/07/10 02:13:31;;;;;;;;;;;20.00;93.10;;;;;;7598505;19;19914;-84
2023/07/10 02:16:04;;;;;;;;;;;20.10;93.10;;;;;;7594374;19;19934;-85
2023/07/10 02:18:37;;;;;;;;;;;20.10;93.00;;;;;;7602208;19;19948;-80
2023/07/10 02:21:09;;;;;;;;;;;20.00;93.60;;;;;;7589716;19;20667;-81
2023/07/10 02:23:41;;;;;;;;;;;20.00;93.40;;;;;;7603906;19;20188;-85
2023/07/10 02:26:14;;;;;;;;;;;20.00;93.30;;;;;;7600234;19;20587;-83
2023/07/10 02:28:47;;;;;;;;;;;20.00;93.80;;;;;;7610538;19;19923;-85
2023/07/10 02:31:20;;;;;;;;;;;19.80;94.50;;;;;;7590416;19;19929;-83
2023/07/10 02:33:52;;;;;;;;;;;19.70;95.10;;;;;;7604122;19;19930;-85
2023/07/10 02:36:26;;;;;;;;;;;19.70;95.30;;;;;;7598678;19;20405;-81
2023/07/10 02:38:58;;;;;;;;;;;19.60;95.70;;;;;;7600753;19;20511;-85
2023/07/10 02:41:30;;;;;;;;;;;19.60;95.30;;;;;;7602699;19;19919;-84
2023/07/10 02:44:02;;;;;;;;;;;19.70;95.20;;;;;;7604693;19;19994;-85
2023/07/10 02:46:35;;;;;;;;;;;19.80;94.60;;;;;;7572858;19;19934;-81
2023/07/10 02:49:07;;;;;;;;;;;19.80;94.40;;;;;;7585746;19;20526;-85
2023/07/10 02:51:39;;;;;;;;;;;19.70;95.20;;;;;;7588018;19;19940;-84
2023/07/10 02:54:12;;;;;;;;;;;19.70;94.70;;;;;;7597985;19;19927;-81
2023/07/10 02:56:45;;;;;;;;;;;19.60;95.70;;;;;;7599763;19;19927;-83
2023/07/10 02:59:17;;;;;;;;;;;19.40;96.30;;;;;;7575366;19;19950;-83
2023/07/10 03:01:49;;;;;;;;;;;19.30;96.40;;;;;;7595848;19;19970;-83
2023/07/10 03:04:21;;;;;;;;;;;19.30;96.90;;;;;;7582758;19;19930;-83
2023/07/10 03:06:53;;;;;;;;;;;19.30;97.00;;;;;;7591691;19;19974;-83
2023/07/10 03:09:25;;;;;;;;;;;19.20;97.50;;;;;;7603149;19;19918;-86
2023/07/10 03:11:57;;;;;;;;;;;19.00;97.40;;;;;;7606010;19;21812;-81
2023/07/10 03:14:29;;;;;;;;;;;19.00;97.60;;;;;;7592319;19;20380;-86
2023/07/10 03:17:03;;;;;;;;;;;18.90;97.70;;;;;;7596279;19;19934;-82
2023/07/10 03:19:36;;;;;;;;;;;18.90;98.00;;;;;;7603602;19;19951;-83
2023/07/10 03:22:08;;;;;;;;;;;19.00;98.00;;;;;;7606631;19;19919;-83
2023/07/10 03:24:40;;;;;;;;;;;19.10;96.90;;;;;;7600482;19;21097;-80
2023/07/10 03:27:12;;;;;;;;;;;19.10;97.60;;;;;;7604135;19;19914;-84
2023/07/10 03:29:44;;;;;;;;;;;19.20;97.10;;;;;;7596073;19;19927;-85
2023/07/10 03:32:16;;;;;;;;;;;19.30;96.40;;;;;;7590272;19;19941;-83
2023/07/10 03:34:49;;;;;;;;;;;19.30;96.50;;;;;;7600199;19;19966;-84
2023/07/10 03:37:21;;;;;;;;;;;19.30;96.30;;;;;;7606833;19;19945;-87
2023/07/10 03:39:53;;;;;;;;;;;19.30;96.40;;;;;;7596140;19;20244;-82
2023/07/10 03:42:25;;;;;;;;;;;19.30;96.60;;;;;;7618930;19;20570;-87
2023/07/10 03:44:57;;;;;;;;;;;19.20;97.90;;;;;;7600153;19;19931;-85
2023/07/10 03:47:30;;;;;;;;;;;19.30;96.80;;;;;;7601938;19;20035;-86
2023/07/10 03:50:02;;;;;;;;;;;19.30;97.20;;;;;;7568219;19;19948;-83
2023/07/10 03:52:34;;;;;;;;;;;19.40;96.40;;;;;;7573309;19;19926;-84
2023/07/10 03:55:06;;;;;;;;;;;19.40;96.40;;;;;;7600803;19;20894;-82
2023/07/10 03:57:39;;;;;;;;;;;19.40;97.70;;;;;;7594490;19;20018;-84
2023/07/10 04:00:11;;;;;;;;;;;19.30;97.60;;;;;;7589923;19;21513;-86
2023/07/10 04:02:43;;;;;;;;;;;19.50;96.60;;;;;;7600208;19;19926;-84
2023/07/10 04:05:16;;;;;;;;;;;19.50;96.00;;;;;;7606697;19;20515;-84
2023/07/10 04:07:48;;;;;;;;;;;19.60;96.30;;;;;;7606608;19;19915;-84
2023/07/10 04:10:20;;;;;;;;;;;19.70;95.90;;;;;;7607072;19;19914;-84
2023/07/10 04:12:52;;;;;;;;;;;19.80;95.70;;;;;;7600452;19;19970;-81
2023/07/10 04:15:25;;;;;;;;;;;19.80;95.60;;;;;;7592302;19;19929;-87
2023/07/10 04:17:57;;;;;;;;;;;19.80;95.40;;;;;;7606845;19;19939;-83
2023/07/10 04:20:30;;;;;;;;;;;19.80;95.80;;;;;;7594763;19;20538;-85
2023/07/10 04:23:02;;;;;;;;;;;19.90;95.50;;;;;;7597824;19;19930;-83
2023/07/10 04:25:36;;;;;;;;;;;20.00;95.50;;;;;;7577893;19;20345;-83
2023/07/10 04:28:08;;;;;;;;;;;20.00;95.60;;;;;;7599421;19;19926;-82
2023/07/10 04:30:40;;;;;;;;;;;20.00;95.80;;;;;;7583159;19;20818;-85
2023/07/10 04:33:14;;;;;;;;;;;20.10;95.30;;;;;;7581627;19;20878;-85
2023/07/10 04:35:54;;;;;;;;;;;20.20;95.30;;;;;;7577345;19;19994;-82
2023/07/10 04:38:27;;;;;;;;;;;20.30;95.20;;;;;;7556045;19;20341;-82
2023/07/10 04:41:01;;;;;;;;;;;20.30;95.20;;;;;;7577112;19;19918;-81
2023/07/10 04:43:33;;;;;;;;;;;20.40;95.10;;;;;;7562456;19;19927;-81
2023/07/10 04:46:08;;;;;;;;;;;20.40;94.90;;;;;;7576660;19;19930;-83
2023/07/10 04:48:42;;;;;;;;;;;20.50;95.00;;;;;;7565259;19;20759;-81
2023/07/10 04:51:15;;;;;;;;;;;20.50;95.10;;;;;;7573640;19;20042;-80
2023/07/10 04:53:47;;;;;;;;;;;20.50;95.10;;;;;;7552279;19;19957;-80
2023/07/10 04:56:20;;;;;;;;;;;20.60;94.90;;;;;;7583400;19;19926;-78
2023/07/10 04:58:53;;;;;;;;;;;20.60;94.70;;;;;;7577070;19;21009;-79
2023/07/10 05:01:27;;;;;;;;;;;20.60;95.30;;;;;;7521768;19;20987;-79
2023/07/10 05:03:59;;;;;;;;;;;20.70;94.90;;;;;;7515875;19;20353;-79
2023/07/10 05:06:32;;;;;;;;;;;20.80;95.10;;;;;;7536876;19;20507;-78
2023/07/10 05:09:05;;;;;;;;;;;;;;;;;;7538860;19;19930;-79
2023/07/10 05:11:37;;;;;;;;;;;;;;;;;;7539871;19;19923;-79
2023/07/10 05:14:10;;;;;;;;;;;;;;;;;;7527986;19;19922;-80
2023/07/10 05:16:43;;;;;;;;;;;;;;;;;;7580250;19;20301;-79
2023/07/10 05:19:15;;;;;;;;;;;;;;;;;;7540952;19;19915;-79
2023/07/10 05:21:48;;;;;;;;;;;;;;;;;;7544528;19;22679;-78
2023/07/10 05:24:21;;;;;;;;;;;;;;;;;;7557537;19;19918;-79
2023/07/10 05:26:53;;;;;;;;;;;;;;;;;;7551510;19;19919;-79
2023/07/10 05:29:26;;;;;;;;;;;;;;;;;;7487888;19;19925;-79
2023/07/10 05:31:59;;;;;;;;;;;;;;;;;;7526107;19;19937;-79
2023/07/10 05:34:31;;;;;;;;;;;;;;;;;;7551781;19;19970;-80
2023/07/10 05:37:04;;;;;;;;;;;;;;;;;;7585108;19;21130;-80
2023/07/10 05:39:37;;;;;;;;;;;;;;;;;;7594745;19;19918;-80
2023/07/10 05:42:09;;;;;;;;;;;;;;;;;;7603794;19;19931;-79
2023/07/10 05:44:42;;;;;;;;;;;;;;;;;;7587539;19;20353;-79
2023/07/10 05:47:15;;;;;;;;;;;;;;;;;;7609065;19;19951;-79
2023/07/10 05:49:47;;;;;;;;;;;;;;;;;;7604479;19;19925;-80
2023/07/10 05:52:20;;;;;;;;;;;;;;;;;;7615221;19;19928;-80
2023/07/10 05:54:52;;;;;;;;;;;;;;;;;;7607617;19;19914;-80
2023/07/10 05:57:25;;;;;;;;;;;;;;;;;;7610241;19;19923;-80
2023/07/10 05:59:58;;;;;;;;;;;;;;;;;;7602778;19;19914;-81
2023/07/10 06:02:30;;;;;;;;;;;;;;;;;;7610350;19;20866;-79
2023/07/10 06:05:03;;;;;;;;;;;;;;;;;;7608891;19;19922;-79
2023/07/10 06:07:35;;;;;;;;;;;;;;;;;;7600332;19;19922;-80
2023/07/10 06:10:08;;;;;;;;;;;;;;;;;;7599569;19;19964;-80
2023/07/10 06:12:41;;;;;;;;;;;;;;;;;;7593342;19;19914;-79
2023/07/10 06:15:14;;;;;;;;;;;;;;;;;;7600144;19;19937;-79
2023/07/10 06:17:48;;;;;;;;;;;;;;;;;;7583884;19;19930;-79
2023/07/10 06:20:21;;;;;;;;;;;;;;;;;;7578125;19;19922;-79
2023/07/10 06:22:53;;;;;;;;;;;;;;;;;;7579474;19;19925;-80
2023/07/10 06:25:26;;;;;;;;;;;;;;;;;;7600386;19;19959;-79
2023/07/10 06:27:58;;;;;;;;;;;;;;;;;;7594619;19;20143;-79
2023/07/10 06:30:31;;;;;;;;;;;;;;;;;;7602994;19;19943;-79
2023/07/10 06:33:03;;;;;;;;;;;20.80;95.10;;;;;;7572450;19;19922;-78
2023/07/10 06:35:35;;;;;;;;;;;24.70;89.00;;;;;;7584224;19;19933;-79
2023/07/10 06:38:08;;;;;;;;;;;24.80;88.20;;;;;;7561052;19;19986;-79
2023/07/10 06:40:40;;;;;;;;;;;24.80;88.30;;;;;;7570588;19;19930;-80
2023/07/10 06:43:12;;;;;;;;;;;25.00;88.60;;;;;;7585620;19;19922;-80
2023/07/10 06:45:45;;;;;;;;;;;25.10;88.30;;;;;;7579829;19;19929;-79
2023/07/10 06:48:17;;;;;;;;;;;25.30;87.80;;;;;;7597889;19;19990;-79
2023/07/10 06:50:50;;;;;;;;;;;25.50;86.80;;;;;;7599906;19;19915;-79
2023/07/10 06:53:23;;;;;;;;;;;25.60;83.00;;;;;;7590149;19;19923;-79
2023/07/10 06:56:00;;;;;;;;;;;25.70;83.70;;;;;;7587740;19;20605;-78
2023/07/10 06:58:34;;;;;;;;;;;25.80;82.90;;;;;;7608040;19;19930;-79
2023/07/10 07:01:06;;;;;;;;;;;25.80;82.50;;;;;;7597344;19;20447;-80
2023/07/10 07:03:40;;;;;;;;;;;25.80;82.20;;;;;;7591013;19;19922;-79
2023/07/10 07:06:13;;;;;;;;;;;26.00;79.90;;;;;;7601961;19;19974;-79
2023/07/10 07:08:49;;;;;;;;;;;26.00;79.50;;;;;;7582258;19;19930;-79
2023/07/10 07:11:21;;;;;;;;;;;26.20;79.50;;;;;;7586813;19;19910;-78
2023/07/10 07:13:53;;;;;;;;;;;26.30;77.20;;;;;;7588351;19;19938;-79
2023/07/10 07:16:26;;;;;;;;;;;;;;;;;;7584858;19;19934;-78
2023/07/10 07:18:58;;;;;;;;;;;;;;;;;;7589602;19;19927;-79
2023/07/10 07:21:42;;;;;;;;;;;;;;;;;;7592174;19;19945;-80
2023/07/10 07:24:15;;;;;;;;;;;;;;;;;;7586172;19;19956;-79
2023/07/10 07:26:47;;;;;;;;;;;26.50;76.30;;;;;;7600225;19;19922;-77
2023/07/10 07:29:23;;;;;;;;;;;27.70;71.50;;;;;;7603594;19;20031;-79
2023/07/10 07:31:55;;;;;;;;;;;27.60;69.50;;;;;;7597284;19;20686;-79
2023/07/10 07:34:27;;;;;;;;;;;27.60;70.40;;;;;;7604327;19;19919;-79
2023/07/10 07:36:59;;;;;;;;;;;27.70;70.20;;;;;;7601226;19;20447;-78
2023/07/10 07:39:32;;;;;;;;;;;27.80;70.70;;;;;;7603727;19;20818;-77
2023/07/10 07:42:05;;;;;;;;;;;27.90;67.90;;;;;;7599071;19;20715;-78
2023/07/10 07:44:37;;;;;;;;;;;28.00;68.20;;;;;;7586315;19;21549;-78
2023/07/10 07:47:09;;;;;;;;;;;28.00;67.10;;;;;;7598205;19;19919;-78
2023/07/10 07:49:42;;;;;;;;;;;28.00;66.00;;;;;;7595829;19;19922;-76
2023/07/10 07:52:14;;;;;;;;;;;28.00;66.90;;;;;;7600260;19;20845;-78
2023/07/10 07:54:48;;;;;;;;;;;27.90;67.20;;;;;;7593739;19;20154;-78
2023/07/10 07:57:22;;;;;;;;;;;27.80;67.70;;;;;;7603371;19;19931;-77
2023/07/10 07:59:55;;;;;;;;;;;27.60;67.90;;;;;;7603361;19;19915;-78
2023/07/10 08:02:27;;;;;;;;;;;27.70;69.10;;;;;;7612247;19;19986;-79
2023/07/10 08:05:01;;;;;;;;;;;27.70;69.40;;;;;;7596873;19;20352;-78
2023/07/10 08:07:33;;;;;;;;;;;27.70;69.70;;;;;;7590941;19;19993;-79
2023/07/10 08:10:06;;;;;;;;;;;27.60;69.90;;;;;;7554260;19;19930;-78
2023/07/10 08:12:38;;;;;;;;;;;27.40;69.30;;;;;;7580850;19;20001;-79
2023/07/10 08:15:11;;;;;;;;;;;27.40;71.00;;;;;;7583531;19;19914;-78
2023/07/10 08:17:43;;;;;;;;;;;27.30;70.90;;;;;;7592312;19;19980;-81
2023/07/10 08:20:15;;;;;;;;;;;27.30;70.20;;;;;;7595940;19;19958;-79
2023/07/10 08:22:47;;;;;;;;;;;27.10;70.50;;;;;;7082911;19;10000470;-79
2023/07/10 08:25:19;;;;;;;;;;;27.10;70.70;;;;;;7066337;19;10000277;-78
2023/07/10 08:27:52;;;;;;;;;;;26.90;70.60;;;;;;7585157;19;19946;-78
2023/07/10 08:30:24;;;;;;;;;;;26.90;71.80;;;;;;7573416;19;20005;-79
2023/07/10 08:32:57;;;;;;;;;;;26.80;71.20;;;;;;7572932;19;19926;-79
2023/07/10 08:35:29;;;;;;;;;;;26.80;72.50;;;;;;7582890;19;19923;-78
2023/07/10 08:38:01;;;;;;;;;;;26.80;73.10;;;;;;7584284;19;19923;-79
2023/07/10 08:40:35;;;;;;;;;;;26.80;72.60;;;;;;7593318;19;19923;-78
2023/07/10 08:43:31;;;;;;;;;;;26.70;72.70;;;;;;7585757;19;19923;-78
2023/07/10 08:46:03;;;;;;;;;;;26.50;71.80;;;;;;7555177;19;20836;-78
2023/07/10 08:48:47;;;;;;;;;;;26.40;72.60;;;;;;7565078;19;19927;-78
2023/07/10 08:51:19;;;;;;;;;;;26.40;73.50;;;;;;7592988;19;19922;-78
2023/07/10 08:54:05;;;;;;;;;;;26.10;73.80;;;;;;7582932;19;19918;-78
2023/07/10 08:56:43;;;;;;;;;;;26.00;74.70;;;;;;7600289;19;19934;-78
2023/07/10 08:59:16;;;;;;;;;;;25.80;77.80;;;;;;7596895;19;19978;-78
2023/07/10 09:01:48;;;;;;;;;;;25.60;78.20;;;;;;7598893;19;19919;-79
2023/07/10 09:04:21;;;;;;;;;;;25.50;78.20;;;;;;7596411;19;19918;-79
2023/07/10 09:06:56;;;;;;;;;;;25.40;79.40;;;;;;7589556;19;19937;-79
2023/07/10 09:09:43;;;;;;;;;;;25.30;80.40;;;;;;7588233;19;20204;-78
2023/07/10 09:12:23;;;;;;;;;;;25.00;82.10;;;;;;7594284;19;19918;-77
2023/07/10 09:14:58;;;;;;;;;;;24.70;85.70;;;;;;7562396;19;20013;-78
2023/07/10 09:17:40;;;;;;;;;;;24.40;87.40;;;;;;7588422;19;19959;-78
2023/07/10 09:20:14;;;;;;;;;;;24.40;90.20;;;;;;7584992;19;20012;-78
2023/07/10 09:22:54;;;;;;;;;;;24.00;92.10;;;;;;7576897;19;19937;-78
2023/07/10 09:25:26;;;;;;;;;;;23.70;92.70;;;;;;7597653;19;20893;-78
2023/07/10 09:27:59;;;;;;;;;;;23.60;93.80;;;;;;7601283;19;20457;-78
2023/07/10 09:30:50;;;;;;;;;;;23.30;94.90;;;;;;7582814;19;21579;-78
2023/07/10 09:33:35;;;;;;;;;;;23.10;96.10;;;;;;7595430;19;20012;-78
2023/07/10 09:36:25;;;;;;;;;;;22.80;97.40;;;;;;7599014;19;19930;-79
2023/07/10 09:39:02;;;;;;;;;;;22.50;98.90;;;;;;7594599;19;19919;-79
2023/07/10 09:41:37;;;;;;;;;;;22.20;99.90;;;;;;7592597;19;19915;-79
2023/07/10 09:44:16;;;;;;;;;;;21.80;99.90;;;;;;7589730;19;19963;-80
2023/07/10 09:46:49;;;;;;;;;;;21.70;99.90;;;;;;7558264;19;19933;-81
2023/07/10 09:49:23;;;;;;;;;;;21.40;99.90;;;;;;7594790;19;20827;-80
2023/07/10 09:51:56;;;;;;;;;;;21.30;99.90;;;;;;7596879;19;19946;-80
2023/07/10 09:54:36;;;;;;;;;;;21.20;99.90;;;;;;7597902;19;19987;-80
2023/07/10 09:57:17;;;;;;;;;;;21.30;99.90;;;;;;7574956;19;20326;-80
2023/07/10 09:59:51;;;;;;;;;;;21.30;99.90;;;;;;7600759;19;19919;-81
2023/07/10 10:02:32;;;;;;;;;;;21.40;99.90;;;;;;7597344;19;19925;-80
2023/07/10 10:05:04;;;;;;;;;;;21.50;99.90;;;;;;7600316;19;19970;-79
2023/07/10 10:07:46;;;;;;;;;;;21.50;99.90;;;;;;7566411;19;19946;-80
2023/07/10 10:10:21;;;;;;;;;;;21.60;99.90;;;;;;7595832;19;19919;-80
2023/07/10 10:13:03;;;;;;;;;;;21.80;99.90;;;;;;7601294;19;20050;-79
2023/07/10 10:16:02;;;;;;;;;;;21.70;99.90;;;;;;7578657;19;19962;-79
2023/07/10 10:18:55;;;;;;;;;;;22.00;99.90;;;;;;7574540;19;21030;-79
2023/07/10 10:21:30;;;;;;;;;;;22.30;99.90;;;;;;7598218;19;19936;-79
2023/07/10 10:24:07;;;;;;;;;;;22.70;99.90;;;;;;7599168;19;19926;-79
2023/07/10 10:26:50;;;;;;;;;;;22.90;99.90;;;;;;7590303;19;20838;-78
2023/07/10 10:29:45;;;;;;;;;;;23.00;99.90;;;;;;7585942;19;20441;-79
2023/07/10 10:32:23;;;;;;;;;;;23.10;99.90;;;;;;7597280;19;19925;-78
2023/07/10 10:35:00;;;;;;;;;;;23.20;99.90;;;;;;7578069;19;20435;-79
2023/07/10 10:37:33;;;;;;;;;;;;;;;;;;7587316;19;19911;-79
2023/07/10 10:40:32;;;;;;;;;;;23.00;99.90;;;;;;7592837;19;19934;-76
2023/07/10 10:43:05;;;;;;;;;;;;;;;;;;7595529;19;20014;-77
2023/07/10 10:45:37;;;;;;;;;;;;;;;;;;7580311;19;19951;-78
2023/07/10 10:48:10;;;;;;;;;;;;;;;;;;7598390;19;19947;-78
2023/07/10 10:50:42;;;;;;;;;;;;;;;;;;7580395;19;19919;-77
2023/07/10 10:53:15;;;;;;;;;;;;;;;;;;7584375;19;20336;-76
2023/07/10 10:55:47;;;;;;;;;;;;;;;;;;7597280;19;19948;-77
2023/07/10 10:58:42;;;;;;;;;;;24.40;99.90;;;;;;7585118;19;19915;-76
2023/07/10 11:01:14;;;;;;;;;;;;;;;;;;7595609;19;19918;-77
2023/07/10 11:03:52;;;;;;;;;;;26.50;99.90;;;;;;7582118;19;19986;-78
2023/07/10 11:06:30;;;;;;;;;;;27.20;99.90;;;;;;7594297;19;20523;-78
2023/07/10 11:09:07;;;;;;;;;;;27.50;99.90;;;;;;7592748;19;19930;-78
2023/07/10 11:11:40;;;;;;;;;;;28.10;99.90;;;;;;7601349;19;19922;-77
2023/07/10 11:14:13;;;;;;;;;;;28.50;98.60;;;;;;7591729;19;19933;-76
2023/07/10 11:16:46;;;;;;;;;;;28.90;96.10;;;;;;7584634;19;19911;-77
2023/07/10 11:19:22;;;;;;;;;;;28.60;94.50;;;;;;7581267;19;19929;-77
2023/07/10 11:21:55;;;;;;;;;;;29.00;93.20;;;;;;7558065;19;20321;-77
2023/07/10 11:24:31;;;;;;;;;;;29.20;92.60;;;;;;7585833;19;19922;-77
2023/07/10 11:27:12;;;;;;;;;;;29.10;93.20;;;;;;7557324;19;20503;-77
2023/07/10 11:29:52;;;;;;;;;;;29.60;93.20;;;;;;7555250;19;19960;-77
2023/07/10 11:32:25;;;;;;;;;;;29.60;91.80;;;;;;7566536;19;19990;-77
2023/07/10 11:35:17;;;;;;;;;;;30.20;91.60;;;;;;7534014;19;19922;-79
2023/07/10 11:37:59;;;;;;;;;;;30.50;87.90;;;;;;7496429;19;20445;-77
2023/07/10 11:40:31;;;;;;;;;;;31.10;87.40;;;;;;7547375;19;19925;-77
2023/07/10 11:43:22;;;;;;;;;;;31.50;85.40;;;;;;7570513;19;19948;-78
2023/07/10 11:46:05;;;;;;;;;;;31.90;85.00;;;;;;7572893;19;20552;-77
2023/07/10 11:48:37;;;;;;;;;;;31.70;79.00;;;;;;7589273;19;20598;-78
2023/07/10 11:51:29;;;;;;;;;;;31.50;77.90;;;;;;7509133;19;20565;-79
2023/07/10 11:54:05;;;;;;;;;;;31.80;77.20;;;;;;7522015;19;19919;-79
2023/07/10 11:56:37;;;;;;;;;;;32.30;73.50;;;;;;7511250;19;20025;-81
2023/07/10 11:59:21;;;;;;;;;;;32.10;72.20;;;;;;7548412;19;19919;-77
2023/07/10 12:01:53;;;;;;;;;;;31.90;73.10;;;;;;7586194;19;20452;-79
2023/07/10 12:04:26;;;;;;;;;;;32.10;68.80;;;;;;7563862;19;19994;-80
2023/07/10 12:06:59;;;;;;;;;;;32.20;69.10;;;;;;7557258;19;19922;-75
2023/07/10 12:09:31;;;;;;;;;;;32.20;67.90;;;;;;7570888;19;19923;-77
2023/07/10 12:12:03;;;;;;;;;;;32.20;69.10;;;;;;7560976;19;19947;-76
2023/07/10 12:14:35;;;;;;;;;;;32.00;67.20;;;;;;7561726;19;20455;-76
2023/07/10 12:17:13;;;;;;;;;;;31.60;68.80;;;;;;7546837;19;19942;-77
2023/07/10 12:20:32;;;;;;;;;;;31.50;70.30;;;;;;7561493;19;19923;-79
2023/07/10 12:23:06;;;;;;;;;;;31.30;71.00;;;;;;7583866;19;19921;-77
2023/07/10 12:25:38;;;;;;;;;;;31.60;70.30;;;;;;7562763;19;20341;-77
2023/07/10 12:28:14;;;;;;;;;;;31.70;68.90;;;;;;7567209;19;19922;-76
2023/07/10 12:30:50;;;;;;;;;;;31.60;67.40;;;;;;7567245;19;20469;-75
2023/07/10 12:33:41;;;;;;;;;;;31.40;67.90;;;;;;7565160;19;19922;-78
2023/07/10 12:36:25;;;;;;;;;;;31.30;69.90;;;;;;7511262;19;19923;-77
2023/07/10 12:39:02;;;;;;;;;;;31.30;71.00;;;;;;7536451;19;19926;-80
2023/07/10 12:41:40;;;;;;;;;;;31.80;70.90;;;;;;7580561;19;21089;-78
2023/07/10 12:44:21;;;;;;;;;;;32.30;69.50;;;;;;7592383;19;20545;-79
2023/07/10 12:46:55;;;;;;;;;;;32.90;66.30;;;;;;7566700;19;19914;-77
2023/07/10 12:49:28;;;;;;;;;;;33.30;66.10;;;;;;7583253;19;19911;-77
2023/07/10 12:52:04;;;;;;;;;;;32.70;64.70;;;;;;7589233;19;19914;-77
2023/07/10 12:54:41;;;;;;;;;;;33.40;66.10;;;;;;7566398;19;20555;-77
2023/07/10 12:57:13;;;;;;;;;;;33.60;64.50;;;;;;7571781;19;19919;-77
2023/07/10 12:59:54;;;;;;;;;;;34.00;62.40;;;;;;7568869;19;20018;-77
2023/07/10 13:02:28;;;;;;;;;;;34.00;60.60;;;;;;7566513;19;19972;-78
2023/07/10 13:05:01;;;;;;;;;;;;;;;;;;7587182;19;19922;-79
2023/07/10 13:07:33;;;;;;;;;;;;;;;;;;7564735;19;19918;-79
2023/07/10 13:10:14;;;;;;;;;;;;;;;;;;7012412;19;9999847;-79
2023/07/10 13:12:50;;;;;;;;;;;;;;;;;;7579712;19;19924;-79
2023/07/10 13:15:23;;;;;;;;;;;;;;;;;;7571560;19;19987;-79
2023/07/10 13:17:56;;;;;;;;;;;;;;;;;;7556031;19;20278;-79
2023/07/10 13:20:28;;;;;;;;;;;34.30;61.30;;;;;;7575102;19;19926;-78
2023/07/10 13:23:01;;;;;;;;;;;;;;;;;;7583089;19;19926;-77
2023/07/10 13:25:34;;;;;;;;;;;;;;;;;;7580241;19;20006;-76
2023/07/10 13:28:07;;;;;;;;;;;;;;;;;;7568939;19;19927;-78
2023/07/10 13:30:39;;;;;;;;;;;;;;;;;;7581122;19;19918;-77
2023/07/10 13:33:12;;;;;;;;;;;;;;;;;;7587557;19;19951;-78
2023/07/10 13:35:44;;;;;;;;;;;;;;;;;;7570751;19;19954;-77
2023/07/10 13:38:17;;;;;;;;;;;;;;;;;;7587626;19;19915;-76
2023/07/10 13:40:50;;;;;;;;;;;;;;;;;;7573856;19;19926;-76
2023/07/10 13:43:22;;;;;;;;;;;;;;;;;;7562755;19;21024;-76
2023/07/10 13:45:54;;;;;;;;;;;;;;;;;;7572071;19;19925;-78
2023/07/10 13:48:27;;;;;;;;;;;;;;;;;;7572755;19;19919;-79
2023/07/10 13:51:00;;;;;;;;;;;;;;;;;;7547053;19;20511;-78
2023/07/10 13:53:32;;;;;;;;;;;;;;;;;;7580321;19;19919;-78
2023/07/10 13:56:05;;;;;;;;;;;;;;;;;;7579203;19;19925;-79
2023/07/10 13:58:38;;;;;;;;;;;;;;;;;;7577020;19;19937;-79
2023/07/10 14:01:11;;;;;;;;;;;;;;;;;;7553090;19;19933;-77
2023/07/10 14:03:43;;;;;;;;;;;;;;;;;;7561706;19;19919;-76
2023/07/10 14:06:16;;;;;;;;;;;;;;;;;;7570567;19;19937;-78
2023/07/10 14:08:48;;;;;;;;;;;;;;;;;;7583457;19;19952;-76
2023/07/10 14:11:21;;;;;;;;;;;;;;;;;;7576698;19;19966;-78
2023/07/10 14:13:53;;;;;;;;;;;;;;;;;;7594238;19;19945;-78
2023/07/10 14:16:26;;;;;;;;;;;;;;;;;;7567090;19;19919;-78
2023/07/10 14:18:59;;;;;;;;;;;;;;;;;;7588913;19;19938;-78
2023/07/10 14:21:31;;;;;;;;;;;;;;;;;;7567712;19;19929;-78
2023/07/10 14:24:04;;;;;;;;;;;;;;;;;;7582854;19;19927;-78
2023/07/10 14:26:36;;;;;;;;;;;;;;;;;;7541782;19;20863;-77
2023/07/10 14:29:09;;;;;;;;;;;;;;;;;;7577739;19;19974;-78
2023/07/10 14:31:41;;;;;;;;;;;;;;;;;;7564756;19;19951;-78
2023/07/10 14:34:14;;;;;;;;;;;;;;;;;;7557527;19;20511;-78
2023/07/10 14:36:46;;;;;;;;;;;;;;;;;;7553829;19;20038;-78
2023/07/10 14:39:19;;;;;;;;;;;;;;;;;;7558054;19;20638;-78
2023/07/10 14:41:51;;;;;;;;;;;;;;;;;;7551789;19;19926;-79
2023/07/10 14:44:24;;;;;;;;;;;;;;;;;;7551230;19;20854;-79
2023/07/10 14:46:57;;;;;;;;;;;;;;;;;;7550042;19;20013;-78
2023/07/10 14:49:39;;;;;;;;;;;;;;;;;;7581170;19;20709;-79
2023/07/10 14:52:11;;;;;;;;;;;;;;;;;;7558958;19;20002;-79
2023/07/10 14:54:44;;;;;;;;;;;;;;;;;;7576584;19;19961;-78
2023/07/10 14:57:16;;;;;;;;;;;;;;;;;;7574667;19;19927;-78
2023/07/10 14:59:49;;;;;;;;;;;;;;;;;;7572475;19;21174;-76
2023/07/10 15:02:23;;;;;;;;;;;;;;;;;;7556817;19;20332;-81
2023/07/10 15:04:57;;;;;;;;;;;;;;;;;;7568104;19;20223;-77
2023/07/10 15:07:29;;;;;;;;;;;;;;;;;;7549878;19;19927;-77
2023/07/10 15:10:05;;;;;;;;;;;;;;;;;;7535265;19;19922;-79
2023/07/10 15:12:51;;;;;;;;;;;;;;;;;;7555576;19;20451;-78
2023/07/10 15:15:23;;;;;;;;;;;;;;;;;;7568273;19;19933;-81
2023/07/10 15:17:56;;;;;;;;;;;;;;;;;;7574186;19;19926;-78
2023/07/10 15:20:28;;;;;;;;;;;;;;;;;;7576535;19;19927;-79
2023/07/10 15:23:01;;;;;;;;;;;;;;;;;;7575303;19;20010;-79
2023/07/10 15:25:33;;;;;;;;;;;;;;;;;;7537507;19;19922;-77
2023/07/10 15:28:06;;;;;;;;;;;;;;;;;;7587493;19;19925;-77
2023/07/10 15:30:38;;;;;;;;;;;;;;;;;;7572349;19;19982;-78
2023/07/10 15:33:11;;;;;;;;;;;;;;;;;;7558888;19;20341;-79
2023/07/10 15:35:44;;;;;;;;;;;;;;;;;;7554227;19;19926;-77
2023/07/10 15:38:17;;;;;;;;;;;;;;;;;;7587938;19;19925;-79